Terminal Aerodrome Forecast
Issued by NWS Blacksburg, VA

Current Version | Previous Version | Text Only | Print | Product List | Glossary Off
Versions: 1 2 3 4 5 6 7 8 9 10 11 12 13 14 15 16 17 18 19 20 21 22 23 24 25 26 27 28 29 30 31 32 33 34 35 36 37 38 39 40 41

000
FTUS41 KRNK 260938 AAA
TAFBLF
TAF AMD
KBLF 260938Z 2610/2706 14003KT P6SM -RA OVC020
     FM261100 32004KT 2SM -SN BR OVC007
      TEMPO 2612/2615 1/2SM SN FG OVC004
     FM261800 31006KT 4SM BR SCT005 OVC012
     FM270000 24004KT P6SM BKN015 OVC035=

USA.gov is the U.S. government's official web portal to all federal, state and local government web resources and services.